Paducah, Kentucky
Current Conditions -  °F | °C
As of 8:53 PM on Friday 28 Nov 2014 (Local Time) from KPAH Reporting Station
Clear Clear  
Wind Chill: 39°   Ceiling: Unl
Heat Index: 43°   Visibility: 10mi
Dew Point: 27°   Wind: 7mph
Humidity: 53%   Direction: 200°SSW
Pressure: 30.04"   Gusts: NA
Location:  37.09°N, 88.59°W
Report Text: KPAH 290253Z 20006KT 10SM CLR 06/M03 A3004 RMK AO2 SLP175 T00611028 58010
Loading
Personal Weather Stations






























Interactive Weather Map New forecast layout! Learn more

10-Day Weather Forecast

Advertisements
Track Severe Weather on mobile